createdAt,value
2023-03-01T00:02:14.410Z,625.00
2023-03-01T00:06:14.501Z,630.00
2023-03-01T00:10:14.667Z,631.00
2023-03-01T00:14:14.785Z,631.00
2023-03-01T00:18:14.917Z,635.00
2023-03-01T00:22:15.000Z,635.00
2023-03-01T00:26:15.164Z,640.00
2023-03-01T00:30:15.293Z,632.00
2023-03-01T00:34:15.487Z,642.00
2023-03-01T00:38:15.649Z,636.00
2023-03-01T00:42:15.811Z,642.00
2023-03-01T00:46:16.057Z,644.00
2023-03-01T00:50:16.103Z,637.00
2023-03-01T00:54:16.328Z,642.00
2023-03-01T00:58:16.502Z,649.00
2023-03-01T01:02:16.706Z,651.00
2023-03-01T01:06:16.776Z,650.00
2023-03-01T01:10:16.849Z,654.00
2023-03-01T01:14:17.062Z,647.00
2023-03-01T01:18:17.195Z,649.00
2023-03-01T01:22:17.356Z,648.00
2023-03-01T01:26:17.561Z,652.00
2023-03-01T01:30:17.745Z,656.00
2023-03-01T01:34:17.925Z,656.00
2023-03-01T01:38:18.131Z,659.00
2023-03-01T01:42:18.332Z,662.00
2023-03-01T01:46:18.566Z,659.00
2023-03-01T01:50:18.724Z,660.00
2023-03-01T01:54:18.878Z,655.00
2023-03-01T01:58:19.042Z,658.00
2023-03-01T02:02:19.289Z,663.00
2023-03-01T02:06:19.223Z,656.00
2023-03-01T02:10:19.202Z,660.00
2023-03-01T02:14:19.153Z,654.00
2023-03-01T02:18:19.102Z,664.00
2023-03-01T02:22:19.048Z,663.00
2023-03-01T02:26:19.062Z,667.00
2023-03-01T02:30:18.938Z,669.00
2023-03-01T02:34:18.924Z,662.00
2023-03-01T02:38:18.919Z,663.00
2023-03-01T02:42:18.856Z,669.00
2023-03-01T02:46:18.884Z,671.00
2023-03-01T02:50:18.967Z,669.00
2023-03-01T02:54:19.123Z,670.00
2023-03-01T02:58:19.315Z,671.00
2023-03-01T03:02:19.516Z,676.00
2023-03-01T03:06:19.752Z,682.00
2023-03-01T03:10:19.677Z,672.00
2023-03-01T03:14:19.628Z,664.00
2023-03-01T03:18:19.604Z,685.00
2023-03-01T03:22:19.558Z,664.00
2023-03-01T03:26:19.547Z,679.00
2023-03-01T03:30:19.507Z,686.00
2023-03-01T03:34:19.460Z,683.00
2023-03-01T03:38:19.494Z,666.00
2023-03-01T03:42:19.363Z,688.00
2023-03-01T03:46:19.320Z,686.00
2023-03-01T03:50:19.554Z,685.00
2023-03-01T03:54:19.506Z,689.00
2023-03-01T03:58:19.474Z,694.00
2023-03-01T04:02:19.454Z,691.00
2023-03-01T04:06:19.380Z,680.00
2023-03-01T04:10:19.367Z,694.00
2023-03-01T04:14:19.302Z,687.00
2023-03-01T04:18:19.358Z,691.00
2023-03-01T04:22:19.264Z,695.00
2023-03-01T04:26:19.218Z,702.00
2023-03-01T04:30:19.189Z,685.00
2023-03-01T04:34:19.408Z,708.00
2023-03-01T04:38:19.653Z,696.00
2023-03-01T04:42:19.900Z,700.00
2023-03-01T04:46:19.857Z,713.00
2023-03-01T04:50:19.771Z,703.00
2023-03-01T04:54:19.718Z,693.00
2023-03-01T04:58:19.677Z,704.00
2023-03-01T05:02:19.673Z,719.00
2023-03-01T05:06:19.632Z,707.00
2023-03-01T05:10:19.558Z,709.00
2023-03-01T05:14:19.588Z,715.00
2023-03-01T05:18:19.542Z,713.00
2023-03-01T05:22:19.621Z,705.00
2023-03-01T05:26:28.250Z,704.00
2023-03-01T05:30:20.536Z,719.00
2023-03-01T05:34:19.490Z,709.00
2023-03-01T05:38:19.550Z,724.00
2023-03-01T05:42:19.437Z,720.00
2023-03-01T05:46:19.381Z,717.00
2023-03-01T05:50:19.340Z,705.00
2023-03-01T05:54:19.283Z,726.00
2023-03-01T05:58:19.308Z,722.00
2023-03-01T06:02:19.236Z,712.00
2023-03-01T06:06:19.228Z,720.00
2023-03-01T06:10:19.185Z,720.00
2023-03-01T06:14:19.243Z,722.00
2023-03-01T06:18:19.213Z,716.00
2023-03-01T06:22:19.237Z,708.00
2023-03-01T06:26:19.108Z,712.00
2023-03-01T06:30:19.113Z,721.00
2023-03-01T06:34:19.038Z,665.00
2023-03-01T06:38:19.214Z,755.00
2023-03-01T06:42:18.985Z,742.00
2023-03-01T06:46:19.001Z,769.00
2023-03-01T06:50:18.982Z,774.00
2023-03-01T06:54:18.900Z,803.00
2023-03-01T06:58:18.829Z,826.00
2023-03-01T07:02:19.171Z,852.00
2023-03-01T07:06:19.264Z,809.00
2023-03-01T07:10:18.743Z,830.00
2023-03-01T07:14:18.681Z,839.00
2023-03-01T07:18:18.616Z,815.00
2023-03-01T07:22:18.614Z,838.00
2023-03-01T07:26:18.587Z,908.00
2023-03-01T07:30:18.572Z,975.00
2023-03-01T07:34:18.543Z,943.00
2023-03-01T07:38:18.536Z,1001.00
2023-03-01T07:42:18.466Z,755.00
2023-03-01T07:46:18.717Z,884.00
2023-03-01T07:50:18.409Z,835.00
2023-03-01T07:54:18.340Z,868.00
2023-03-01T07:58:18.338Z,885.00
2023-03-01T08:02:18.263Z,875.00
2023-03-01T08:06:18.716Z,879.00
2023-03-01T08:10:18.186Z,879.00
2023-03-01T08:14:18.177Z,878.00
2023-03-01T08:18:18.088Z,880.00
2023-03-01T08:22:18.263Z,627.00
2023-03-01T08:26:18.298Z,622.00
2023-03-01T08:30:18.468Z,598.00
2023-03-01T08:34:18.699Z,705.00
2023-03-01T08:38:18.348Z,713.00
2023-03-01T08:42:18.341Z,720.00
2023-03-01T08:46:18.323Z,722.00
2023-03-01T08:50:18.256Z,726.00
2023-03-01T08:54:18.230Z,729.00
2023-03-01T08:58:18.188Z,749.00
2023-03-01T09:02:18.156Z,759.00
2023-03-01T09:06:18.127Z,750.00
2023-03-01T09:10:18.235Z,764.00
2023-03-01T09:14:18.019Z,754.00
2023-03-01T09:18:17.982Z,1228.00
2023-03-01T09:22:18.246Z,763.00
2023-03-01T09:26:18.145Z,759.00
2023-03-01T09:30:18.305Z,708.00
2023-03-01T09:34:18.536Z,727.00
2023-03-01T09:38:18.529Z,693.00
2023-03-01T09:42:19.280Z,649.00
2023-03-01T09:46:18.875Z,626.00
2023-03-01T09:50:18.942Z,591.00
2023-03-01T09:54:19.145Z,602.00
2023-03-01T09:58:19.328Z,601.00
2023-03-01T10:02:19.528Z,648.00
2023-03-01T10:06:33.988Z,662.00
2023-03-01T10:10:20.549Z,735.00
2023-03-01T10:14:19.487Z,730.00
2023-03-01T10:18:19.584Z,738.00
2023-03-01T10:22:19.753Z,730.00
2023-03-01T10:26:19.724Z,753.00
2023-03-01T10:30:19.782Z,738.00
2023-03-01T10:34:19.700Z,757.00
2023-03-01T10:38:19.867Z,658.00
2023-03-01T10:42:19.943Z,613.00
2023-03-01T10:46:20.021Z,661.00
2023-03-01T10:50:20.142Z,653.00
2023-03-01T10:54:20.302Z,656.00
2023-03-01T10:58:20.471Z,655.00
2023-03-01T11:02:25.411Z,664.00
2023-03-01T11:06:21.610Z,663.00
2023-03-01T11:10:20.493Z,676.00
2023-03-01T11:14:26.948Z,701.00
2023-03-01T11:18:21.400Z,703.00
2023-03-01T11:22:20.400Z,701.00
2023-03-01T11:26:20.381Z,680.00
2023-03-01T11:30:20.303Z,598.00
2023-03-01T11:34:20.307Z,641.00
2023-03-01T11:38:20.365Z,643.00
2023-03-01T11:42:20.564Z,771.00
2023-03-01T11:46:20.697Z,876.00
2023-03-01T11:50:21.051Z,950.00
2023-03-01T11:54:21.015Z,912.00
2023-03-01T11:58:21.150Z,900.00
2023-03-01T12:02:21.131Z,948.00
2023-03-01T12:06:21.065Z,897.00
2023-03-01T12:10:21.006Z,891.00
2023-03-01T12:14:21.000Z,858.00
2023-03-01T12:18:20.983Z,889.00
2023-03-01T12:22:20.986Z,884.00
2023-03-01T12:26:20.853Z,703.00
2023-03-01T12:30:20.828Z,646.00
2023-03-01T12:34:20.801Z,622.00
2023-03-01T12:38:20.765Z,594.00
2023-03-01T12:42:20.732Z,591.00
2023-03-01T12:46:20.647Z,583.00
2023-03-01T12:50:20.600Z,587.00
2023-03-01T12:54:20.584Z,591.00
2023-03-01T12:58:20.531Z,585.00
2023-03-01T13:02:20.567Z,592.00
2023-03-01T13:06:20.658Z,591.00
2023-03-01T13:10:20.735Z,607.00
2023-03-01T13:14:20.812Z,663.00
2023-03-01T13:18:20.997Z,657.00
2023-03-01T13:22:21.108Z,692.00
2023-03-01T13:26:21.247Z,651.00
2023-03-01T13:30:21.227Z,655.00
2023-03-01T13:34:21.354Z,653.00
2023-03-01T13:38:21.146Z,653.00
2023-03-01T13:42:21.197Z,644.00
2023-03-01T13:46:21.193Z,675.00
2023-03-01T13:50:21.015Z,718.00
2023-03-01T13:54:20.999Z,724.00
2023-03-01T13:58:20.961Z,685.00
2023-03-01T14:02:20.906Z,720.00
2023-03-01T14:06:21.330Z,696.00
2023-03-01T14:10:20.997Z,872.00
2023-03-01T14:14:20.938Z,1013.00
2023-03-01T14:18:20.861Z,1092.00
2023-03-01T14:22:20.864Z,1078.00
2023-03-01T14:26:20.819Z,930.00
2023-03-01T14:30:20.764Z,810.00
2023-03-01T14:34:20.745Z,773.00
2023-03-01T14:38:20.698Z,788.00
2023-03-01T14:42:20.730Z,721.00
2023-03-01T14:46:20.644Z,882.00
2023-03-01T14:50:20.876Z,912.00
2023-03-01T14:54:20.574Z,894.00
2023-03-01T14:58:20.493Z,965.00
2023-03-01T15:02:20.463Z,951.00
2023-03-01T15:06:20.458Z,955.00
2023-03-01T15:10:20.381Z,958.00
2023-03-01T15:14:20.337Z,961.00
2023-03-01T15:18:20.342Z,954.00
2023-03-01T15:22:20.518Z,962.00
2023-03-01T15:26:20.521Z,950.00
2023-03-01T15:30:20.465Z,944.00
2023-03-01T15:34:20.437Z,939.00
2023-03-01T15:38:25.937Z,920.00
2023-03-01T15:42:21.355Z,909.00
2023-03-01T15:46:20.344Z,904.00
2023-03-01T15:50:20.282Z,892.00
2023-03-01T15:54:20.257Z,891.00
2023-03-01T15:58:20.253Z,876.00
2023-03-01T16:02:20.223Z,883.00
2023-03-01T16:06:20.165Z,865.00
2023-03-01T16:10:20.103Z,873.00
2023-03-01T16:14:20.063Z,862.00
2023-03-01T16:18:20.065Z,869.00
2023-03-01T16:22:20.040Z,867.00
2023-03-01T16:26:21.480Z,861.00
2023-03-01T16:30:19.924Z,863.00
2023-03-01T16:34:19.966Z,860.00
2023-03-01T16:38:19.842Z,865.00
2023-03-01T16:42:19.791Z,846.00
2023-03-01T16:46:19.873Z,854.00
2023-03-01T16:50:19.741Z,851.00
2023-03-01T16:54:19.700Z,851.00
2023-03-01T16:58:19.694Z,839.00
2023-03-01T17:02:19.643Z,834.00
2023-03-01T17:06:19.636Z,833.00
2023-03-01T17:10:19.713Z,840.00
2023-03-01T17:14:19.820Z,836.00
2023-03-01T17:18:19.954Z,853.00
2023-03-01T17:22:20.074Z,853.00
2023-03-01T17:26:20.207Z,835.00
2023-03-01T17:30:20.332Z,852.00
2023-03-01T17:34:20.502Z,856.00
2023-03-01T17:38:20.670Z,845.00
2023-03-01T17:42:20.929Z,831.00
2023-03-01T17:46:21.148Z,833.00
2023-03-01T17:50:21.269Z,825.00
2023-03-01T17:54:21.455Z,836.00
2023-03-01T17:58:21.574Z,836.00
2023-03-01T18:02:21.844Z,836.00
2023-03-01T18:06:22.062Z,822.00
2023-03-01T18:10:22.206Z,843.00
2023-03-01T18:14:22.174Z,829.00
2023-03-01T18:18:22.121Z,837.00
2023-03-01T18:22:22.091Z,828.00
2023-03-01T18:26:22.086Z,819.00
2023-03-01T18:30:22.037Z,828.00
2023-03-01T18:34:21.982Z,827.00
2023-03-01T18:38:21.920Z,833.00
2023-03-01T18:42:21.926Z,804.00
2023-03-01T18:46:22.057Z,820.00
2023-03-01T18:50:21.884Z,819.00
2023-03-01T18:54:22.054Z,822.00
2023-03-01T18:58:22.067Z,827.00
2023-03-01T19:02:22.012Z,815.00
2023-03-01T19:06:21.983Z,813.00
2023-03-01T19:10:21.928Z,806.00
2023-03-01T19:14:21.929Z,817.00
2023-03-01T19:18:21.895Z,811.00
2023-03-01T19:22:21.840Z,824.00
2023-03-01T19:26:21.768Z,910.00
2023-03-01T19:30:21.760Z,881.00
2023-03-01T19:34:21.752Z,847.00
2023-03-01T19:38:21.875Z,869.00
2023-03-01T19:42:22.005Z,838.00
2023-03-01T19:46:22.297Z,826.00
2023-03-01T19:50:22.370Z,847.00
2023-03-01T19:54:22.506Z,834.00
2023-03-01T19:58:22.598Z,788.00
2023-03-01T20:02:22.737Z,848.00
2023-03-01T20:06:22.784Z,803.00
2023-03-01T20:10:22.816Z,801.00
2023-03-01T20:14:24.212Z,792.00
2023-03-01T20:18:22.845Z,794.00
2023-03-01T20:22:22.849Z,795.00
2023-03-01T20:26:22.927Z,789.00
2023-03-01T20:30:22.896Z,785.00
2023-03-01T20:34:22.877Z,778.00
2023-03-01T20:38:22.863Z,797.00
2023-03-01T20:42:22.864Z,797.00
2023-03-01T20:46:22.877Z,797.00
2023-03-01T20:50:22.862Z,777.00
2023-03-01T20:54:22.802Z,781.00
2023-03-01T20:58:22.796Z,777.00
2023-03-01T21:02:22.807Z,792.00
2023-03-01T21:06:22.793Z,784.00
2023-03-01T21:10:22.853Z,788.00
2023-03-01T21:14:22.782Z,784.00
2023-03-01T21:18:22.804Z,799.00
2023-03-01T21:22:22.781Z,810.00
2023-03-01T21:26:22.849Z,811.00
2023-03-01T21:30:22.758Z,819.00
2023-03-01T21:34:23.081Z,824.00
2023-03-01T21:38:22.750Z,836.00
2023-03-01T21:42:22.744Z,821.00
2023-03-01T21:46:22.750Z,855.00
2023-03-01T21:50:22.809Z,830.00
2023-03-01T21:54:22.832Z,848.00
2023-03-01T21:58:22.848Z,849.00
2023-03-01T22:02:22.900Z,844.00
2023-03-01T22:06:23.035Z,848.00
2023-03-01T22:10:22.973Z,860.00
2023-03-01T22:14:22.958Z,871.00
2023-03-01T22:18:23.003Z,860.00
2023-03-01T22:22:23.075Z,864.00
2023-03-01T22:26:23.125Z,881.00
2023-03-01T22:30:23.154Z,871.00
2023-03-01T22:34:23.237Z,871.00
2023-03-01T22:38:23.217Z,871.00
2023-03-01T22:42:23.281Z,892.00
2023-03-01T22:46:23.465Z,905.00
2023-03-01T22:50:23.728Z,889.00
2023-03-01T22:54:23.893Z,885.00
2023-03-01T22:58:23.743Z,907.00
2023-03-01T23:02:23.915Z,898.00
2023-03-01T23:06:23.848Z,907.00
2023-03-01T23:10:23.858Z,904.00
2023-03-01T23:14:23.896Z,925.00
2023-03-01T23:18:24.004Z,912.00
2023-03-01T23:22:24.040Z,939.00
2023-03-01T23:26:24.108Z,917.00
2023-03-01T23:30:24.191Z,933.00
2023-03-01T23:34:24.277Z,929.00
2023-03-01T23:38:24.369Z,934.00
2023-03-01T23:42:24.477Z,930.00
2023-03-01T23:46:24.665Z,927.00
2023-03-01T23:50:25.374Z,946.00
2023-03-01T23:54:24.900Z,953.00
2023-03-01T23:58:24.970Z,946.00
